Time,TemperatureF,DewpointF,PressureIn,WindDirection,WindDirectionDegrees,WindSpeedMPH,WindSpeedGustMPH,Humidity,HourlyPrecipIn,Conditions,Clouds,dailyrainin,SoftwareType,DateUTC
2013-08-16 00:01:00,63.4,57.8,29.85,SSW,208,0.0,0.0,82,0.00,,---,0.00,VWS V14.01,2013-08-16 07:01:00,
2013-08-16 00:11:00,63.1,57.5,29.85,SSW,208,0.0,0.0,82,0.00,,---,0.00,VWS V14.01,2013-08-16 07:11:00,
2013-08-16 00:21:00,62.7,57.5,29.85,SSW,208,0.0,0.0,83,0.00,,---,0.00,VWS V14.01,2013-08-16 07:21:00,
2013-08-16 00:26:00,62.6,57.4,29.85,SSW,208,0.0,0.0,83,0.00,,---,0.00,VWS V14.01,2013-08-16 07:26:00,
2013-08-16 00:46:00,62.3,57.4,29.85,SSW,208,0.0,0.0,84,0.00,,---,0.00,VWS V14.01,2013-08-16 07:46:00,
2013-08-16 00:51:00,62.1,57.2,29.85,SSW,208,0.0,0.0,84,0.00,,---,0.00,VWS V14.01,2013-08-16 07:51:00,
2013-08-16 00:56:00,62.1,57.2,29.85,SSW,208,0.0,0.0,84,0.00,,---,0.00,VWS V14.01,2013-08-16 07:56:00,
2013-08-16 01:06:00,61.8,56.9,29.85,SSW,208,0.0,0.0,84,0.00,,---,0.00,VWS V14.01,2013-08-16 08:06:00,
2013-08-16 01:11:00,61.6,57.0,29.85,SSW,208,0.0,0.0,85,0.00,,---,0.00,VWS V14.01,2013-08-16 08:11:00,
2013-08-16 01:21:00,61.5,57.0,29.84,SSW,208,0.0,0.0,85,0.00,,---,0.00,VWS V14.01,2013-08-16 08:21:00,
2013-08-16 01:31:00,61.3,56.8,29.84,SSW,208,0.0,0.0,85,0.00,,---,0.00,VWS V14.01,2013-08-16 08:31:00,
2013-08-16 01:36:00,61.2,57.0,29.84,SSW,208,0.0,0.0,86,0.00,,---,0.00,VWS V14.01,2013-08-16 08:36:00,
2013-08-16 01:41:00,61.2,57.0,29.84,SSW,208,0.0,0.0,86,0.00,,---,0.00,VWS V14.01,2013-08-16 08:41:00,
2013-08-16 01:51:00,61.2,57.0,29.84,SSW,208,0.0,0.0,86,0.00,,---,0.00,VWS V14.01,2013-08-16 08:51:00,
2013-08-16 01:56:00,61.3,57.4,29.84,SSW,208,0.0,0.0,87,0.00,,---,0.00,VWS V14.01,2013-08-16 08:56:00,
2013-08-16 02:01:00,61.3,57.4,29.84,SSW,208,0.0,0.0,87,0.00,,---,0.00,VWS V14.01,2013-08-16 09:01:00,
2013-08-16 02:06:00,61.3,57.4,29.84,SSW,208,0.0,0.0,87,0.00,,---,0.00,VWS V14.01,2013-08-16 09:06:00,
2013-08-16 02:11:00,61.3,57.4,29.84,SSW,208,0.0,0.0,87,0.00,,---,0.00,VWS V14.01,2013-08-16 09:11:00,
2013-08-16 02:21:00,61.3,57.7,29.84,SSW,208,0.0,0.0,88,0.00,,---,0.00,VWS V14.01,2013-08-16 09:21:00,
2013-08-16 02:31:00,61.2,57.6,29.84,SSW,208,0.0,0.0,88,0.00,,---,0.00,VWS V14.01,2013-08-16 09:31:00,
2013-08-16 02:36:00,61.2,57.9,29.84,SSW,208,0.0,0.0,89,0.00,,---,0.00,VWS V14.01,2013-08-16 09:36:00,
2013-08-16 02:41:00,61.2,57.9,29.84,SSW,208,0.0,0.0,89,0.00,,---,0.00,VWS V14.01,2013-08-16 09:41:00,
2013-08-16 02:51:00,61.0,57.7,29.84,SSW,208,0.0,0.0,89,0.00,,---,0.00,VWS V14.01,2013-08-16 09:51:00,
2013-08-16 02:56:00,61.0,57.7,29.84,SSW,208,0.0,0.0,89,0.00,,---,0.00,VWS V14.01,2013-08-16 09:56:00,
2013-08-16 03:01:00,61.0,57.7,29.84,SSW,208,0.0,0.0,89,0.00,,---,0.00,VWS V14.01,2013-08-16 10:01:00,
2013-08-16 03:06:00,61.0,57.7,29.84,SSW,208,0.0,0.0,89,0.00,,---,0.00,VWS V14.01,2013-08-16 10:06:00,
2013-08-16 03:11:00,61.0,57.7,29.84,SSW,208,0.0,0.0,89,0.00,,---,0.00,VWS V14.01,2013-08-16 10:11:00,
2013-08-16 03:16:00,61.0,57.7,29.84,SSW,208,0.0,0.0,89,0.00,,---,0.00,VWS V14.01,2013-08-16 10:16:00,
2013-08-16 03:21:00,61.0,58.0,29.84,SSW,208,0.0,0.0,90,0.00,,---,0.00,VWS V14.01,2013-08-16 10:21:00,
2013-08-16 03:26:00,61.0,58.0,29.84,SSW,208,0.0,0.0,90,0.00,,---,0.00,VWS V14.01,2013-08-16 10:26:00,
2013-08-16 03:36:00,61.0,58.0,29.84,SSW,208,0.0,0.0,90,0.00,,---,0.00,VWS V14.01,2013-08-16 10:36:00,
2013-08-16 03:41:00,61.2,58.2,29.84,SSW,208,0.0,0.0,90,0.00,,---,0.00,VWS V14.01,2013-08-16 10:41:00,
2013-08-16 03:46:00,61.2,58.2,29.84,SSW,208,0.0,0.0,90,0.00,,---,0.00,VWS V14.01,2013-08-16 10:46:00,
2013-08-16 03:56:00,61.0,58.4,29.84,SSW,208,0.0,0.0,91,0.00,,---,0.00,VWS V14.01,2013-08-16 10:56:00,
2013-08-16 04:01:00,61.0,58.4,29.83,SSW,208,0.0,0.0,91,0.00,,---,0.00,VWS V14.01,2013-08-16 11:01:00,
2013-08-16 04:06:00,61.0,58.4,29.83,SSW,208,0.0,0.0,91,0.00,,---,0.00,VWS V14.01,2013-08-16 11:06:00,
2013-08-16 04:11:00,61.0,58.4,29.83,SSW,208,0.0,0.0,91,0.00,,---,0.00,VWS V14.01,2013-08-16 11:11:00,
2013-08-16 04:21:00,60.7,58.1,29.83,SSW,208,0.0,0.0,91,0.00,,---,0.00,VWS V14.01,2013-08-16 11:21:00,
2013-08-16 04:26:00,60.7,58.1,29.83,SSW,208,0.0,0.0,91,0.00,,---,0.00,VWS V14.01,2013-08-16 11:26:00,
2013-08-16 04:36:00,60.2,57.6,29.83,SSW,208,0.0,0.0,91,0.00,,---,0.00,VWS V14.01,2013-08-16 11:36:00,
2013-08-16 04:41:00,60.1,57.5,29.83,SSW,208,0.0,0.0,91,0.00,,---,0.00,VWS V14.01,2013-08-16 11:41:00,
2013-08-16 04:51:00,59.8,57.2,29.82,SSW,208,0.0,0.0,91,0.00,,---,0.00,VWS V14.01,2013-08-16 11:51:00,
2013-08-16 04:56:00,59.6,57.0,29.82,SSW,208,0.0,0.0,91,0.00,,---,0.00,VWS V14.01,2013-08-16 11:56:00,
2013-08-16 05:01:00,59.3,56.7,29.82,SSW,208,0.0,0.0,91,0.00,,---,0.00,VWS V14.01,2013-08-16 12:01:00,
2013-08-16 05:06:00,59.2,56.6,29.82,SSW,208,0.0,0.0,91,0.00,,---,0.00,VWS V14.01,2013-08-16 12:06:00,
2013-08-16 05:16:00,58.9,56.3,29.82,SSW,208,0.0,0.0,91,0.00,,---,0.00,VWS V14.01,2013-08-16 12:16:00,
2013-08-16 05:21:00,58.7,56.1,29.82,SSW,208,0.0,0.0,91,0.00,,---,0.00,VWS V14.01,2013-08-16 12:21:00,
2013-08-16 05:31:00,58.6,56.0,29.82,SSW,208,0.0,0.0,91,0.00,,---,0.00,VWS V14.01,2013-08-16 12:31:00,
2013-08-16 05:36:00,58.4,55.8,29.82,SSW,208,0.0,0.0,91,0.00,,---,0.00,VWS V14.01,2013-08-16 12:36:00,
2013-08-16 05:41:00,58.3,55.7,29.82,SSW,208,0.0,0.0,91,0.00,,---,0.00,VWS V14.01,2013-08-16 12:41:00,
2013-08-16 05:46:00,58.1,55.5,29.83,SSW,208,0.0,0.0,91,0.00,,---,0.00,VWS V14.01,2013-08-16 12:46:00,
2013-08-16 05:51:00,58.1,55.5,29.83,SSW,208,0.0,0.0,91,0.00,,---,0.00,VWS V14.01,2013-08-16 12:51:00,
2013-08-16 05:56:00,58.0,55.4,29.83,SSW,208,0.0,0.0,91,0.00,,---,0.00,VWS V14.01,2013-08-16 12:56:00,
2013-08-16 06:06:00,57.8,55.2,29.83,SSW,208,0.0,0.0,91,0.00,,---,0.00,VWS V14.01,2013-08-16 13:06:00,
2013-08-16 06:11:00,57.6,55.0,29.83,SSW,208,0.0,0.0,91,0.00,,---,0.00,VWS V14.01,2013-08-16 13:11:00,
2013-08-16 06:21:00,57.5,54.9,29.84,SSW,208,0.0,0.0,91,0.00,,---,0.00,VWS V14.01,2013-08-16 13:21:00,
2013-08-16 06:31:00,57.3,54.7,29.84,SSW,208,0.0,0.0,91,0.00,,---,0.00,VWS V14.01,2013-08-16 13:31:00,
2013-08-16 06:36:00,57.3,54.7,29.84,SSW,208,0.0,0.0,91,0.00,,---,0.00,VWS V14.01,2013-08-16 13:36:00,
2013-08-16 06:46:00,57.2,54.6,29.84,SSW,208,0.0,0.0,91,0.00,,---,0.00,VWS V14.01,2013-08-16 13:46:00,
2013-08-16 06:51:00,57.2,54.6,29.84,SSW,208,0.0,0.0,91,0.00,,---,0.00,VWS V14.01,2013-08-16 13:51:00,
2013-08-16 06:56:00,57.2,54.9,29.84,SSW,208,0.0,0.0,92,0.00,,---,0.00,VWS V14.01,2013-08-16 13:56:00,
2013-08-16 07:01:00,57.3,55.0,29.85,SSW,208,0.0,0.0,92,0.00,,---,0.00,VWS V14.01,2013-08-16 14:01:00,
2013-08-16 07:06:00,57.6,55.3,29.85,SSW,208,0.0,0.0,92,0.00,,---,0.00,VWS V14.01,2013-08-16 14:06:00,
2013-08-16 07:16:00,58.3,56.0,29.85,SSW,208,0.0,0.0,92,0.00,,---,0.00,VWS V14.01,2013-08-16 14:16:00,
2013-08-16 07:21:00,58.4,56.1,29.85,SSW,208,0.0,0.0,92,0.00,,---,0.00,VWS V14.01,2013-08-16 14:21:00,
2013-08-16 07:31:00,59.2,57.2,29.85,SSW,208,0.0,0.0,93,0.00,,---,0.00,VWS V14.01,2013-08-16 14:31:00,
2013-08-16 07:36:00,59.6,57.6,29.85,SSW,208,0.0,0.0,93,0.00,,---,0.00,VWS V14.01,2013-08-16 14:36:00,
2013-08-16 07:41:00,59.9,57.9,29.85,SSW,208,0.0,0.0,93,0.00,,---,0.00,VWS V14.01,2013-08-16 14:41:00,
2013-08-16 07:51:00,60.5,58.5,29.86,SSW,208,0.0,0.0,93,0.00,,---,0.00,VWS V14.01,2013-08-16 14:51:00,
2013-08-16 07:56:00,60.9,58.9,29.86,SSW,208,0.0,0.0,93,0.00,,---,0.00,VWS V14.01,2013-08-16 14:56:00,
2013-08-16 08:06:00,62.1,60.4,29.86,SSW,208,0.0,0.0,94,0.00,,---,0.00,VWS V14.01,2013-08-16 15:06:00,
2013-08-16 08:11:00,63.1,61.0,29.86,SSW,208,0.0,0.0,93,0.00,,---,0.00,VWS V14.01,2013-08-16 15:11:00,
2013-08-16 08:16:00,63.4,61.3,29.87,SSW,208,0.0,0.0,93,0.00,,---,0.00,VWS V14.01,2013-08-16 15:16:00,
2013-08-16 08:21:00,64.0,61.6,29.87,SSW,208,0.0,0.0,92,0.00,,---,0.00,VWS V14.01,2013-08-16 15:21:00,
2013-08-16 08:31:00,65.5,62.2,29.87,SSW,208,0.0,0.0,89,0.00,,---,0.00,VWS V14.01,2013-08-16 15:31:00,
2013-08-16 08:36:00,66.3,62.6,29.87,SSW,208,0.0,0.0,88,0.00,,---,0.00,VWS V14.01,2013-08-16 15:36:00,
2013-08-16 08:41:00,66.9,62.6,29.87,SSW,208,0.0,0.0,86,0.00,,---,0.00,VWS V14.01,2013-08-16 15:41:00,
2013-08-16 08:51:00,68.6,62.9,29.86,SSW,208,0.0,0.0,82,0.00,,---,0.00,VWS V14.01,2013-08-16 15:51:00,
2013-08-16 09:01:00,69.9,63.1,29.86,SSW,208,0.0,0.0,79,0.00,,---,0.00,VWS V14.01,2013-08-16 16:01:00,
2013-08-16 09:06:00,70.6,63.0,29.86,SSE,162,0.0,0.0,77,0.00,,---,0.00,VWS V14.01,2013-08-16 16:06:00,
2013-08-16 09:16:00,71.8,63.5,29.85,South,178,0.0,0.0,75,0.00,,---,0.00,VWS V14.01,2013-08-16 16:16:00,
2013-08-16 09:21:00,72.7,63.5,29.85,South,188,0.0,0.0,73,0.00,,---,0.00,VWS V14.01,2013-08-16 16:21:00,
2013-08-16 09:26:00,73.2,63.6,29.85,South,189,0.0,0.0,72,0.00,,---,0.00,VWS V14.01,2013-08-16 16:26:00,
2013-08-16 09:31:00,73.7,63.3,29.85,South,191,0.0,0.0,70,0.00,,---,0.00,VWS V14.01,2013-08-16 16:31:00,
2013-08-16 09:41:00,74.9,63.6,29.85,SSE,157,0.0,0.0,68,0.00,,---,0.00,VWS V14.01,2013-08-16 16:41:00,
2013-08-16 09:46:00,75.3,63.2,29.85,South,184,0.0,0.0,66,0.00,,---,0.00,VWS V14.01,2013-08-16 16:46:00,
2013-08-16 09:51:00,76.0,63.0,29.85,South,172,0.0,0.0,64,0.00,,---,0.00,VWS V14.01,2013-08-16 16:51:00,
2013-08-16 10:01:00,77.6,63.1,29.85,SSE,167,0.0,0.0,61,0.00,,---,0.00,VWS V14.01,2013-08-16 17:01:00,
2013-08-16 10:11:00,78.8,63.3,29.85,South,174,0.0,0.0,59,0.00,,---,0.00,VWS V14.01,2013-08-16 17:11:00,
2013-08-16 10:21:00,80.9,64.2,29.85,South,171,0.0,0.0,57,0.00,,---,0.00,VWS V14.01,2013-08-16 17:21:00,
2013-08-16 10:26:00,81.4,62.1,29.85,South,181,0.0,0.0,52,0.00,,---,0.00,VWS V14.01,2013-08-16 17:26:00,
2013-08-16 10:31:00,81.8,63.0,29.85,South,184,0.0,0.0,53,0.00,,---,0.00,VWS V14.01,2013-08-16 17:31:00,
2013-08-16 10:41:00,83.4,63.4,29.85,South,184,0.0,0.0,51,0.00,,---,0.00,VWS V14.01,2013-08-16 17:41:00,
2013-08-16 10:51:00,85.3,63.4,29.84,SSW,192,0.0,2.0,48,0.00,,---,0.00,VWS V14.01,2013-08-16 17:51:00,
2013-08-16 10:56:00,85.3,64.0,29.84,SSW,206,0.0,2.0,49,0.00,,---,0.00,VWS V14.01,2013-08-16 17:56:00,
2013-08-16 11:01:00,86.1,63.5,29.84,SSW,199,0.0,1.0,47,0.00,,---,0.00,VWS V14.01,2013-08-16 18:01:00,
2013-08-16 11:06:00,86.7,63.5,29.84,SSW,199,0.0,1.0,46,0.00,,---,0.00,VWS V14.01,2013-08-16 18:06:00,
2013-08-16 11:16:00,87.8,61.2,29.84,South,181,0.0,1.0,41,0.00,,---,0.00,VWS V14.01,2013-08-16 18:16:00,
2013-08-16 11:21:00,88.2,60.8,29.84,WNW,291,0.0,1.0,40,0.00,,---,0.00,VWS V14.01,2013-08-16 18:21:00,
2013-08-16 11:26:00,88.2,62.2,29.84,South,172,1.0,1.0,42,0.00,,---,0.00,VWS V14.01,2013-08-16 18:26:00,
2013-08-16 11:31:00,88.2,62.9,29.84,South,181,0.0,1.0,43,0.00,,---,0.00,VWS V14.01,2013-08-16 18:31:00,
2013-08-16 11:41:00,88.8,62.8,29.84,SSW,208,1.0,2.0,42,0.00,,---,0.00,VWS V14.01,2013-08-16 18:41:00,
2013-08-16 11:51:00,89.5,63.4,29.83,WSW,257,0.0,1.0,42,0.00,,---,0.00,VWS V14.01,2013-08-16 18:51:00,
2013-08-16 11:56:00,89.9,64.4,29.83,SW,236,0.0,2.0,43,0.00,,---,0.00,VWS V14.01,2013-08-16 18:56:00,
2013-08-16 12:01:00,89.7,63.6,29.83,South,172,0.0,1.0,42,0.00,,---,0.00,VWS V14.01,2013-08-16 19:01:00,
2013-08-16 12:06:00,89.9,64.4,29.83,SW,233,0.0,3.0,43,0.00,,---,0.00,VWS V14.01,2013-08-16 19:06:00,
2013-08-16 12:11:00,91.2,63.5,29.83,SW,217,0.0,2.0,40,0.00,,---,0.00,VWS V14.01,2013-08-16 19:11:00,
2013-08-16 12:21:00,90.3,61.3,29.83,WSW,258,0.0,6.0,38,0.00,,---,0.00,VWS V14.01,2013-08-16 19:21:00,
2013-08-16 12:26:00,90.5,61.5,29.83,West,267,2.0,6.0,38,0.00,,---,0.00,VWS V14.01,2013-08-16 19:26:00,
2013-08-16 12:31:00,90.5,59.1,29.83,SW,226,3.0,6.0,35,0.00,,---,0.00,VWS V14.01,2013-08-16 19:31:00,
2013-08-16 12:41:00,91.6,60.1,29.83,West,270,0.0,5.0,35,0.00,,---,0.00,VWS V14.01,2013-08-16 19:41:00,
2013-08-16 12:46:00,91.4,59.9,29.83,SW,222,0.0,7.0,35,0.00,,---,0.00,VWS V14.01,2013-08-16 19:46:00,
2013-08-16 12:56:00,90.3,58.2,29.83,SSW,208,10.0,10.0,34,0.00,,---,0.00,VWS V14.01,2013-08-16 19:56:00,
2013-08-16 13:01:00,90.7,58.5,29.83,West,274,0.0,11.0,34,0.00,,---,0.00,VWS V14.01,2013-08-16 20:01:00,
2013-08-16 13:06:00,91.2,59.8,29.83,SSE,162,7.0,12.0,35,0.00,,---,0.00,VWS V14.01,2013-08-16 20:06:00,
2013-08-16 13:11:00,91.8,58.6,29.83,SW,217,8.0,13.0,33,0.00,,---,0.00,VWS V14.01,2013-08-16 20:11:00,
2013-08-16 13:16:00,91.6,60.1,29.83,SW,217,3.0,12.0,35,0.00,,---,0.00,VWS V14.01,2013-08-16 20:16:00,
2013-08-16 13:21:00,91.6,60.9,29.83,South,189,9.0,12.0,36,0.00,,---,0.00,VWS V14.01,2013-08-16 20:21:00,
2013-08-16 13:26:00,91.2,61.3,29.83,South,175,5.0,14.0,37,0.00,,---,0.00,VWS V14.01,2013-08-16 20:26:00,
2013-08-16 13:36:00,90.7,60.1,29.83,South,189,3.0,13.0,36,0.00,,---,0.00,VWS V14.01,2013-08-16 20:36:00,
2013-08-16 13:41:00,90.7,57.7,29.83,SSW,203,3.0,14.0,33,0.00,,---,0.00,VWS V14.01,2013-08-16 20:41:00,
2013-08-16 13:46:00,91.0,58.8,29.83,SSW,212,5.0,13.0,34,0.00,,---,0.00,VWS V14.01,2013-08-16 20:46:00,
2013-08-16 13:51:00,90.7,58.5,29.83,SW,226,7.0,13.0,34,0.00,,---,0.00,VWS V14.01,2013-08-16 20:51:00,
2013-08-16 13:56:00,90.3,58.2,29.83,SW,224,1.0,12.0,34,0.00,,---,0.00,VWS V14.01,2013-08-16 20:56:00,
2013-08-16 14:01:00,90.3,59.8,29.83,SSW,206,0.0,12.0,36,0.00,,---,0.00,VWS V14.01,2013-08-16 21:01:00,
2013-08-16 14:11:00,89.9,57.8,29.83,SW,215,6.0,13.0,34,0.00,,---,0.00,VWS V14.01,2013-08-16 21:11:00,
2013-08-16 14:16:00,89.7,59.2,29.83,West,261,0.0,10.0,36,0.00,,---,0.00,VWS V14.01,2013-08-16 21:16:00,
2013-08-16 14:26:00,90.3,58.2,29.83,SSW,210,0.0,10.0,34,0.00,,---,0.00,VWS V14.01,2013-08-16 21:26:00,
2013-08-16 14:31:00,90.7,57.7,29.83,SW,233,0.0,11.0,33,0.00,,---,0.00,VWS V14.01,2013-08-16 21:31:00,
2013-08-16 14:36:00,91.0,57.9,29.83,SW,224,12.0,12.0,33,0.00,,---,0.00,VWS V14.01,2013-08-16 21:36:00,
2013-08-16 14:46:00,91.6,57.6,29.83,SSW,210,0.0,8.0,32,0.00,,---,0.00,VWS V14.01,2013-08-16 21:46:00,
2013-08-16 14:56:00,91.2,57.2,29.83,SW,230,0.0,12.0,32,0.00,,---,0.00,VWS V14.01,2013-08-16 21:56:00,
2013-08-16 15:01:00,90.7,57.7,29.82,South,189,6.0,12.0,33,0.00,,---,0.00,VWS V14.01,2013-08-16 22:01:00,
2013-08-16 15:11:00,89.9,56.1,29.82,South,178,0.0,11.0,32,0.00,,---,0.00,VWS V14.01,2013-08-16 22:11:00,
2013-08-16 15:16:00,89.7,56.0,29.82,South,181,8.0,12.0,32,0.00,,---,0.00,VWS V14.01,2013-08-16 22:16:00,
2013-08-16 15:26:00,89.3,54.7,29.82,SSW,210,4.0,11.0,31,0.00,,---,0.00,VWS V14.01,2013-08-16 22:26:00,
2013-08-16 15:31:00,88.8,56.0,29.82,SW,232,0.0,8.0,33,0.00,,---,0.00,VWS V14.01,2013-08-16 22:31:00,
2013-08-16 15:41:00,88.8,55.2,29.82,SSE,167,0.0,8.0,32,0.00,,---,0.00,VWS V14.01,2013-08-16 22:41:00,
2013-08-16 15:46:00,89.5,54.9,29.82,SW,219,0.0,11.0,31,0.00,,---,0.00,VWS V14.01,2013-08-16 22:46:00,
2013-08-16 15:51:00,89.0,56.2,29.82,SSW,206,0.0,6.0,33,0.00,,---,0.00,VWS V14.01,2013-08-16 22:51:00,
2013-08-16 15:56:00,89.5,55.8,29.82,SSW,202,0.0,8.0,32,0.00,,---,0.00,VWS V14.01,2013-08-16 22:56:00,
2013-08-16 16:06:00,89.7,55.1,29.82,South,185,0.0,10.0,31,0.00,,---,0.00,VWS V14.01,2013-08-16 23:06:00,
2013-08-16 16:16:00,89.5,53.1,29.82,South,174,0.0,10.0,29,0.00,,---,0.00,VWS V14.01,2013-08-16 23:16:00,
2013-08-16 16:21:00,89.3,53.8,29.82,South,181,0.0,8.0,30,0.00,,---,0.00,VWS V14.01,2013-08-16 23:21:00,
2013-08-16 16:31:00,89.0,54.5,29.81,South,185,0.0,8.0,31,0.00,,---,0.00,VWS V14.01,2013-08-16 23:31:00,
2013-08-16 16:41:00,88.8,54.3,29.81,SSW,205,0.0,7.0,31,0.00,,---,0.00,VWS V14.01,2013-08-16 23:41:00,
2013-08-16 16:46:00,88.6,54.1,29.81,WSW,239,0.0,1.0,31,0.00,,---,0.00,VWS V14.01,2013-08-16 23:46:00,
2013-08-16 16:56:00,88.0,54.5,29.81,SSW,209,0.0,7.0,32,0.00,,---,0.00,VWS V14.01,2013-08-16 23:56:00,
2013-08-16 17:06:00,88.2,56.3,29.81,WSW,251,2.0,2.0,34,0.00,,---,0.00,VWS V14.01,2013-08-17 00:06:00,
2013-08-16 17:11:00,87.4,56.4,29.81,WSW,250,0.0,2.0,35,0.00,,---,0.00,VWS V14.01,2013-08-17 00:11:00,
2013-08-16 17:16:00,87.0,55.3,29.81,SSW,212,0.0,3.0,34,0.00,,---,0.00,VWS V14.01,2013-08-17 00:16:00,
2013-08-16 17:21:00,86.7,56.6,29.81,WSW,239,0.0,7.0,36,0.00,,---,0.00,VWS V14.01,2013-08-17 00:21:00,
2013-08-16 17:26:00,86.7,56.6,29.81,SW,233,0.0,2.0,36,0.00,,---,0.00,VWS V14.01,2013-08-17 00:26:00,
2013-08-16 17:31:00,87.2,56.2,29.81,SSW,209,0.0,2.0,35,0.00,,---,0.00,VWS V14.01,2013-08-17 00:31:00,
2013-08-16 17:41:00,87.8,56.8,29.81,WSW,241,0.0,5.0,35,0.00,,---,0.00,VWS V14.01,2013-08-17 00:41:00,
2013-08-16 17:46:00,87.8,56.8,29.81,WSW,237,0.0,5.0,35,0.00,,---,0.00,VWS V14.01,2013-08-17 00:46:00,
2013-08-16 17:51:00,87.6,57.4,29.81,SW,229,1.0,2.0,36,0.00,,---,0.00,VWS V14.01,2013-08-17 00:51:00,
2013-08-16 18:01:00,87.2,58.5,29.81,SW,232,0.0,1.0,38,0.00,,---,0.00,VWS V14.01,2013-08-17 01:01:00,
2013-08-16 18:11:00,86.3,58.5,29.81,WSW,256,0.0,1.0,39,0.00,,---,0.00,VWS V14.01,2013-08-17 01:11:00,
2013-08-16 18:21:00,84.7,58.4,29.81,West,274,0.0,2.0,41,0.00,,---,0.00,VWS V14.01,2013-08-17 01:21:00,
2013-08-16 18:26:00,84.0,59.1,29.81,WSW,257,1.0,2.0,43,0.00,,---,0.00,VWS V14.01,2013-08-17 01:26:00,
2013-08-16 18:31:00,83.2,59.0,29.81,West,272,1.0,1.0,44,0.00,,---,0.00,VWS V14.01,2013-08-17 01:31:00,
2013-08-16 18:36:00,82.2,58.8,29.81,SW,230,0.0,2.0,45,0.00,,---,0.00,VWS V14.01,2013-08-17 01:36:00,
2013-08-16 18:41:00,81.1,59.0,29.81,WSW,257,1.0,1.0,47,0.00,,---,0.00,VWS V14.01,2013-08-17 01:41:00,
2013-08-16 18:51:00,79.6,58.8,29.82,West,268,0.0,0.0,49,0.00,,---,0.00,VWS V14.01,2013-08-17 01:51:00,
2013-08-16 19:01:00,78.8,58.6,29.82,West,268,0.0,0.0,50,0.00,,---,0.00,VWS V14.01,2013-08-17 02:01:00,
2013-08-16 19:06:00,78.5,58.9,29.82,West,268,0.0,0.0,51,0.00,,---,0.00,VWS V14.01,2013-08-17 02:06:00,
2013-08-16 19:16:00,77.7,58.7,29.82,West,268,0.0,0.0,52,0.00,,---,0.00,VWS V14.01,2013-08-17 02:16:00,
2013-08-16 19:21:00,77.4,59.0,29.82,West,268,0.0,0.0,53,0.00,,---,0.00,VWS V14.01,2013-08-17 02:21:00,
2013-08-16 19:26:00,76.8,58.4,29.82,SW,230,0.0,0.0,53,0.00,,---,0.00,VWS V14.01,2013-08-17 02:26:00,
2013-08-16 19:36:00,76.3,58.5,29.82,SW,230,0.0,0.0,54,0.00,,---,0.00,VWS V14.01,2013-08-17 02:36:00,
2013-08-16 19:41:00,76.0,58.7,29.82,SW,230,0.0,0.0,55,0.00,,---,0.00,VWS V14.01,2013-08-17 02:41:00,
2013-08-16 19:46:00,75.8,59.0,29.82,SW,230,0.0,0.0,56,0.00,,---,0.00,VWS V14.01,2013-08-17 02:46:00,
2013-08-16 19:51:00,75.4,58.6,29.82,SW,230,0.0,0.0,56,0.00,,---,0.00,VWS V14.01,2013-08-17 02:51:00,
2013-08-16 20:01:00,75.1,59.3,29.83,SW,230,0.0,0.0,58,0.00,,---,0.00,VWS V14.01,2013-08-17 03:01:00,
2013-08-16 20:06:00,74.7,59.4,29.83,SW,230,0.0,0.0,59,0.00,,---,0.00,VWS V14.01,2013-08-17 03:06:00,
2013-08-16 20:11:00,74.6,59.8,29.83,SW,230,0.0,0.0,60,0.00,,---,0.00,VWS V14.01,2013-08-17 03:11:00,
2013-08-16 20:16:00,74.2,59.4,29.83,SW,230,0.0,0.0,60,0.00,,---,0.00,VWS V14.01,2013-08-17 03:16:00,
2013-08-16 20:21:00,74.0,59.7,29.83,SW,230,0.0,0.0,61,0.00,,---,0.00,VWS V14.01,2013-08-17 03:21:00,
2013-08-16 20:26:00,73.7,59.4,29.83,SW,230,0.0,0.0,61,0.00,,---,0.00,VWS V14.01,2013-08-17 03:26:00,
2013-08-16 20:31:00,73.3,59.5,29.83,SW,230,0.0,0.0,62,0.00,,---,0.00,VWS V14.01,2013-08-17 03:31:00,
2013-08-16 20:41:00,72.7,59.8,29.83,SW,230,0.0,0.0,64,0.00,,---,0.00,VWS V14.01,2013-08-17 03:41:00,
2013-08-16 20:46:00,72.1,59.3,29.84,SW,230,0.0,0.0,64,0.00,,---,0.00,VWS V14.01,2013-08-17 03:46:00,
2013-08-16 20:51:00,71.8,59.4,29.84,SW,230,0.0,0.0,65,0.00,,---,0.00,VWS V14.01,2013-08-17 03:51:00,
2013-08-16 21:01:00,71.5,59.6,29.84,SW,230,0.0,0.0,66,0.00,,---,0.00,VWS V14.01,2013-08-17 04:01:00,
2013-08-16 21:06:00,71.1,59.2,29.84,SW,230,0.0,0.0,66,0.00,,---,0.00,VWS V14.01,2013-08-17 04:06:00,
2013-08-16 21:11:00,70.9,59.4,29.84,SW,230,0.0,0.0,67,0.00,,---,0.00,VWS V14.01,2013-08-17 04:11:00,
2013-08-16 21:16:00,70.6,59.1,29.84,SW,230,0.0,0.0,67,0.00,,---,0.00,VWS V14.01,2013-08-17 04:16:00,
2013-08-16 21:21:00,70.4,59.3,29.84,SW,230,0.0,0.0,68,0.00,,---,0.00,VWS V14.01,2013-08-17 04:21:00,
2013-08-16 21:31:00,69.8,58.8,29.85,SW,230,0.0,0.0,68,0.00,,---,0.00,VWS V14.01,2013-08-17 04:31:00,
2013-08-16 21:41:00,69.3,58.7,29.85,SW,230,0.0,0.0,69,0.00,,---,0.00,VWS V14.01,2013-08-17 04:41:00,
2013-08-16 21:46:00,68.9,58.7,29.85,SW,230,0.0,0.0,70,0.00,,---,0.00,VWS V14.01,2013-08-17 04:46:00,
2013-08-16 21:51:00,68.6,58.4,29.85,SW,230,0.0,0.0,70,0.00,,---,0.00,VWS V14.01,2013-08-17 04:51:00,
2013-08-16 22:01:00,68.3,58.5,29.85,SW,230,0.0,0.0,71,0.00,,---,0.00,VWS V14.01,2013-08-17 05:01:00,
2013-08-16 22:11:00,67.8,58.1,29.85,SW,230,0.0,0.0,71,0.00,,---,0.00,VWS V14.01,2013-08-17 05:11:00,
2013-08-16 22:21:00,67.3,58.0,29.85,SW,230,0.0,0.0,72,0.00,,---,0.00,VWS V14.01,2013-08-17 05:21:00,
2013-08-16 22:31:00,66.8,57.9,29.85,SW,230,0.0,0.0,73,0.00,,---,0.00,VWS V14.01,2013-08-17 05:31:00,
2013-08-16 22:41:00,66.4,57.9,29.85,SW,230,0.0,0.0,74,0.00,,---,0.00,VWS V14.01,2013-08-17 05:41:00,
2013-08-16 22:51:00,66.0,57.9,29.85,SW,230,0.0,0.0,75,0.00,,---,0.00,VWS V14.01,2013-08-17 05:51:00,
2013-08-16 23:01:00,65.8,57.7,29.85,SW,230,0.0,0.0,75,0.00,,---,0.00,VWS V14.01,2013-08-17 06:01:00,
2013-08-16 23:06:00,65.6,57.8,29.85,SW,230,0.0,0.0,76,0.00,,---,0.00,VWS V14.01,2013-08-17 06:06:00,
2013-08-16 23:16:00,65.3,57.5,29.85,SW,230,0.0,0.0,76,0.00,,---,0.00,VWS V14.01,2013-08-17 06:16:00,
2013-08-16 23:21:00,65.2,57.5,29.85,SW,230,0.0,0.0,76,0.00,,---,0.00,VWS V14.01,2013-08-17 06:21:00,
2013-08-16 23:26:00,65.0,57.6,29.85,SW,230,0.0,0.0,77,0.00,,---,0.00,VWS V14.01,2013-08-17 06:26:00,
2013-08-16 23:36:00,64.5,57.1,29.85,SW,230,0.0,0.0,77,0.00,,---,0.00,VWS V14.01,2013-08-17 06:36:00,
2013-08-16 23:46:00,64.2,57.2,29.84,SW,230,0.0,0.0,78,0.00,,---,0.00,VWS V14.01,2013-08-17 06:46:00,
2013-08-16 23:56:00,64.0,57.0,29.84,SW,230,0.0,0.0,78,0.00,,---,0.00,VWS V14.01,2013-08-17 06:56:00,